createdAt,value
2019-03-10T00:00:47.344Z,0.60
2019-03-10T00:04:53.838Z,0.53
2019-03-10T00:08:58.676Z,0.68
2019-03-10T00:13:03.642Z,0.57
2019-03-10T00:17:08.544Z,0.55
2019-03-10T00:21:13.488Z,0.50
2019-03-10T00:25:18.359Z,0.50
2019-03-10T00:29:23.133Z,0.70
2019-03-10T00:33:28.453Z,0.80
2019-03-10T00:37:33.248Z,0.40
2019-03-10T00:42:15.441Z,0.50
2019-03-10T00:47:01.196Z,0.60
2019-03-10T00:51:43.568Z,0.60
2019-03-10T00:55:48.428Z,0.50
2019-03-10T00:59:53.305Z,0.57
2019-03-10T01:03:58.373Z,0.65
2019-03-10T01:08:03.440Z,0.50
2019-03-10T01:12:09.896Z,0.75
2019-03-10T01:16:15.267Z,0.70
2019-03-10T01:20:20.486Z,0.80
2019-03-10T01:24:25.381Z,0.40
2019-03-10T01:28:30.108Z,0.47
2019-03-10T01:33:24.778Z,0.70
2019-03-10T01:37:29.494Z,0.60
2019-03-10T01:41:35.073Z,0.50
2019-03-10T01:45:39.793Z,0.70
2019-03-10T01:49:44.503Z,0.70
2019-03-10T01:53:49.241Z,0.72
2019-03-10T01:57:53.961Z,0.55
2019-03-10T02:01:58.792Z,0.60
2019-03-10T02:06:03.593Z,0.60
2019-03-10T02:10:09.321Z,0.57
2019-03-10T02:14:14.192Z,0.53
2019-03-10T02:18:18.912Z,0.68
2019-03-10T02:22:23.728Z,0.50
2019-03-10T02:26:29.619Z,0.23
2019-03-10T02:30:34.338Z,0.45
2019-03-10T02:34:39.131Z,0.37
2019-03-10T02:38:43.930Z,0.55
2019-03-10T02:42:48.841Z,0.42
2019-03-10T02:46:53.720Z,0.57
2019-03-10T02:50:58.608Z,0.60
2019-03-10T02:55:03.459Z,0.35
2019-03-10T02:59:08.261Z,0.45
2019-03-10T03:03:13.044Z,0.40
2019-03-10T03:07:17.816Z,0.35
2019-03-10T03:11:22.847Z,0.40
2019-03-10T03:15:27.552Z,0.37
2019-03-10T03:19:32.272Z,0.30
2019-03-10T03:23:37.327Z,0.50
2019-03-10T03:27:42.195Z,0.30
2019-03-10T03:31:46.922Z,0.10
2019-03-10T03:35:53.878Z,0.08
2019-03-10T03:39:59.931Z,0.40
2019-03-10T03:44:05.222Z,0.50
2019-03-10T03:48:10.023Z,0.20
2019-03-10T03:52:14.930Z,0.17
2019-03-10T03:56:19.717Z,0.30
2019-03-10T04:00:24.574Z,0.10
2019-03-10T04:04:29.394Z,0.13
2019-03-10T04:08:34.442Z,0.30
2019-03-10T04:12:39.342Z,0.40
2019-03-10T04:16:44.166Z,0.60
2019-03-10T04:20:49.182Z,0.37
2019-03-10T04:24:53.897Z,0.45
2019-03-10T04:28:58.611Z,0.35
2019-03-10T04:33:03.612Z,0.30
2019-03-10T04:37:08.408Z,0.47
2019-03-10T04:41:13.275Z,0.50
2019-03-10T04:45:18.015Z,0.42
2019-03-10T04:49:22.725Z,0.40
2019-03-10T04:53:28.798Z,0.57
2019-03-10T04:57:33.525Z,0.60
2019-03-10T05:01:38.343Z,0.70
2019-03-10T05:05:43.185Z,0.47
2019-03-10T05:09:47.985Z,0.47
2019-03-10T05:13:52.940Z,0.70
2019-03-10T05:17:57.741Z,0.45
2019-03-10T05:22:02.537Z,0.40
2019-03-10T05:26:07.396Z,0.70
2019-03-10T05:30:12.285Z,0.50
2019-03-10T05:34:17.123Z,0.60
2019-03-10T05:38:21.912Z,0.65
2019-03-10T05:42:26.724Z,0.60
2019-03-10T05:46:31.447Z,0.60
2019-03-10T05:50:36.192Z,0.90
2019-03-10T05:54:41.020Z,0.85
2019-03-10T05:58:45.831Z,0.80
2019-03-10T06:02:50.655Z,0.75
2019-03-10T06:06:55.368Z,1.00
2019-03-10T06:11:00.414Z,0.70
2019-03-10T06:15:05.720Z,3.40
2019-03-10T06:19:10.756Z,0.88
2019-03-10T06:23:15.887Z,0.82
2019-03-10T06:27:20.691Z,0.90
2019-03-10T06:31:25.428Z,0.75
2019-03-10T06:35:30.229Z,0.78
2019-03-10T06:39:35.015Z,0.35
2019-03-10T06:43:39.951Z,0.78
2019-03-10T06:47:44.688Z,0.50
2019-03-10T06:51:49.701Z,0.72
2019-03-10T06:55:54.420Z,0.50
2019-03-10T06:59:59.218Z,0.50
2019-03-10T07:04:04.237Z,0.62
2019-03-10T07:08:08.952Z,0.53
2019-03-10T07:12:13.894Z,0.50
2019-03-10T07:16:18.681Z,0.45
2019-03-10T07:20:23.621Z,0.70
2019-03-10T07:24:28.472Z,0.57
2019-03-10T07:28:41.080Z,0.62
2019-03-10T07:33:01.537Z,0.78
2019-03-10T07:37:34.932Z,0.47
2019-03-10T07:42:05.649Z,0.60
2019-03-10T07:46:38.848Z,0.47
2019-03-10T07:51:01.456Z,0.53
2019-03-10T07:55:24.707Z,0.40
2019-03-10T07:59:58.988Z,0.50
2019-03-10T08:04:31.749Z,0.40
2019-03-10T08:09:04.492Z,0.47
2019-03-10T08:13:17.893Z,0.20
2019-03-10T08:17:32.955Z,0.23
2019-03-10T08:21:59.814Z,0.30
2019-03-10T08:26:16.138Z,0.28
2019-03-10T08:30:36.256Z,0.20
2019-03-10T08:35:02.892Z,0.30
2019-03-10T08:39:27.026Z,0.20
2019-03-10T08:43:44.190Z,0.30
2019-03-10T08:48:09.268Z,0.20
2019-03-10T08:52:23.465Z,0.20
2019-03-10T08:56:38.371Z,0.20
2019-03-10T09:00:51.382Z,0.30
2019-03-10T09:05:08.212Z,0.30
2019-03-10T09:09:26.070Z,0.23
2019-03-10T09:13:56.132Z,0.20
2019-03-10T09:18:33.216Z,0.23
2019-03-10T09:22:52.006Z,0.30
2019-03-10T09:27:05.207Z,0.30
2019-03-10T09:31:20.398Z,0.35
2019-03-10T09:35:47.757Z,0.30
2019-03-10T09:40:10.292Z,0.50
2019-03-10T09:44:34.508Z,0.33
2019-03-10T09:48:47.441Z,0.30
2019-03-10T09:53:20.474Z,0.10
2019-03-10T09:57:46.772Z,0.30
2019-03-10T10:02:03.198Z,0.40
2019-03-10T10:06:26.885Z,0.50
2019-03-10T10:10:43.280Z,0.42
2019-03-10T10:15:19.394Z,0.47
2019-03-10T10:19:42.176Z,0.42
2019-03-10T10:23:54.726Z,0.30
2019-03-10T10:28:30.992Z,0.40
2019-03-10T10:32:46.718Z,0.47
2019-03-10T10:37:10.780Z,0.45
2019-03-10T10:41:33.808Z,0.50
2019-03-10T10:46:02.442Z,0.40
2019-03-10T10:50:26.852Z,0.40
2019-03-10T10:54:39.982Z,0.50
2019-03-10T10:59:02.954Z,0.40
2019-03-10T11:03:30.926Z,0.40
2019-03-10T11:07:53.859Z,0.60
2019-03-10T11:12:07.041Z,0.37
2019-03-10T11:16:30.956Z,0.50
2019-03-10T11:20:42.016Z,0.33
2019-03-10T11:25:12.096Z,0.42
2019-03-10T11:29:39.511Z,0.60
2019-03-10T11:34:04.940Z,0.47
2019-03-10T11:38:15.208Z,0.45
2019-03-10T11:42:37.855Z,0.60
2019-03-10T11:46:47.827Z,0.80
2019-03-10T11:51:10.435Z,0.65
2019-03-10T11:55:26.667Z,0.60
2019-03-10T12:00:00.330Z,0.50
2019-03-10T12:04:37.082Z,0.47
2019-03-10T12:08:54.605Z,0.50
2019-03-10T12:12:59.456Z,0.20
2019-03-10T12:17:04.326Z,0.35
2019-03-10T12:21:09.346Z,0.33
2019-03-10T12:25:14.319Z,0.40
2019-03-10T12:29:19.167Z,0.40
2019-03-10T12:33:24.203Z,0.40
2019-03-10T12:37:29.004Z,0.20
2019-03-10T12:41:34.032Z,0.40
2019-03-10T12:45:38.934Z,0.28
2019-03-10T12:49:43.748Z,0.33
2019-03-10T12:53:48.777Z,0.50
2019-03-10T12:57:56.336Z,0.35
2019-03-10T13:02:02.283Z,0.20
2019-03-10T13:06:07.171Z,0.40
2019-03-10T13:10:12.815Z,0.50
2019-03-10T13:14:18.095Z,0.85
2019-03-10T13:18:23.041Z,0.40
2019-03-10T13:22:28.310Z,0.40
2019-03-10T13:26:33.152Z,0.50
2019-03-10T13:30:37.941Z,0.30
2019-03-10T13:34:42.888Z,0.30
2019-03-10T13:38:47.811Z,0.23
2019-03-10T13:42:52.864Z,0.20
2019-03-10T13:46:57.661Z,0.42
2019-03-10T13:51:02.432Z,0.40
2019-03-10T13:55:08.055Z,0.40
2019-03-10T13:59:12.796Z,0.37
2019-03-10T14:03:17.747Z,0.30
2019-03-10T14:07:22.628Z,0.30
2019-03-10T14:11:28.109Z,0.28
2019-03-10T14:15:32.860Z,0.42
2019-03-10T14:19:38.833Z,0.33
2019-03-10T14:23:43.631Z,0.37
2019-03-10T14:27:48.447Z,0.28
2019-03-10T14:31:53.374Z,0.53
2019-03-10T14:35:58.093Z,0.30
2019-03-10T14:40:03.118Z,0.42
2019-03-10T14:44:08.326Z,0.20
2019-03-10T14:48:13.136Z,0.40
2019-03-10T14:52:19.747Z,0.33
2019-03-10T14:56:24.524Z,0.20
2019-03-10T15:00:29.621Z,0.30
2019-03-10T15:04:34.648Z,0.10
2019-03-10T15:08:39.525Z,0.30
2019-03-10T15:12:44.709Z,0.25
2019-03-10T15:16:49.446Z,0.50
2019-03-10T15:20:54.848Z,0.30
2019-03-10T15:24:59.725Z,0.30
2019-03-10T15:29:04.593Z,0.20
2019-03-10T15:33:09.592Z,0.20
2019-03-10T15:37:14.302Z,0.50
2019-03-10T15:41:19.477Z,0.40
2019-03-10T15:45:24.503Z,0.30
2019-03-10T15:49:29.420Z,0.33
2019-03-10T15:53:34.584Z,0.35
2019-03-10T15:57:49.310Z,0.45
2019-03-10T16:01:46.104Z,0.50
2019-03-10T16:05:50.987Z,0.40
2019-03-10T16:09:56.775Z,0.53
2019-03-10T16:14:01.711Z,0.40
2019-03-10T16:18:07.085Z,0.60
2019-03-10T16:22:12.060Z,0.50
2019-03-10T16:26:16.975Z,0.50
2019-03-10T16:30:21.903Z,0.72
2019-03-10T16:34:26.833Z,0.68
2019-03-10T16:38:31.652Z,0.60
2019-03-10T16:42:36.659Z,0.80
2019-03-10T16:46:41.548Z,0.68
2019-03-10T16:50:46.307Z,0.62
2019-03-10T16:54:51.048Z,0.72
2019-03-10T16:58:55.797Z,0.90
2019-03-10T17:03:00.986Z,0.78
2019-03-10T17:07:06.176Z,0.65
2019-03-10T17:11:12.892Z,0.80
2019-03-10T17:15:17.916Z,1.15
2019-03-10T17:19:22.663Z,0.75
2019-03-10T17:23:27.825Z,1.02
2019-03-10T17:27:32.643Z,1.02
2019-03-10T17:31:37.816Z,1.05
2019-03-10T17:35:42.812Z,1.20
2019-03-10T17:39:47.636Z,1.10
2019-03-10T17:43:52.551Z,0.85
2019-03-10T17:47:57.772Z,1.20
2019-03-10T17:52:13.802Z,1.10
2019-03-10T17:56:09.840Z,0.98
2019-03-10T18:00:16.516Z,0.90
2019-03-10T18:04:21.367Z,1.00
2019-03-10T18:08:26.230Z,0.98
2019-03-10T18:12:31.312Z,1.20
2019-03-10T18:16:36.187Z,0.90
2019-03-10T18:20:41.367Z,1.07
2019-03-10T18:24:46.172Z,1.25
2019-03-10T18:28:50.989Z,1.57
2019-03-10T18:32:56.233Z,1.47
2019-03-10T18:37:01.279Z,1.02
2019-03-10T18:41:06.224Z,1.35
2019-03-10T18:45:14.231Z,1.27
2019-03-10T18:49:19.116Z,1.60
2019-03-10T18:53:24.038Z,1.90
2019-03-10T18:57:30.040Z,1.95
2019-03-10T19:01:34.984Z,2.00
2019-03-10T19:05:40.548Z,2.00
2019-03-10T19:09:45.490Z,1.65
2019-03-10T19:13:50.392Z,1.60
2019-03-10T19:17:55.233Z,2.02
2019-03-10T19:22:00.107Z,1.90
2019-03-10T19:26:05.455Z,1.60
2019-03-10T19:30:12.469Z,2.27
2019-03-10T19:34:17.688Z,1.98
2019-03-10T19:38:22.503Z,1.92
2019-03-10T19:42:27.460Z,1.77
2019-03-10T19:46:32.373Z,1.70
2019-03-10T19:50:37.119Z,2.17
2019-03-10T19:54:42.252Z,2.08
2019-03-10T19:58:47.136Z,2.45
2019-03-10T20:02:52.191Z,1.90
2019-03-10T20:06:57.008Z,2.58
2019-03-10T20:11:01.861Z,1.80
2019-03-10T20:15:08.140Z,2.60
2019-03-10T20:19:12.973Z,2.05
2019-03-10T20:23:17.926Z,2.10
2019-03-10T20:27:22.669Z,2.17
2019-03-10T20:31:27.533Z,2.33
2019-03-10T20:35:32.329Z,2.15
2019-03-10T20:39:37.672Z,2.75
2019-03-10T20:43:42.796Z,3.02
2019-03-10T20:47:48.390Z,2.85
2019-03-10T20:51:53.479Z,3.37
2019-03-10T20:55:58.280Z,4.05
2019-03-10T21:00:03.113Z,3.65
2019-03-10T21:04:08.721Z,3.58
2019-03-10T21:08:13.467Z,3.42
2019-03-10T21:12:18.428Z,3.83
2019-03-10T21:16:25.472Z,3.45
2019-03-10T21:20:29.815Z,2.33
2019-03-10T21:24:34.862Z,2.10
2019-03-10T21:28:39.756Z,1.70
2019-03-10T21:32:45.171Z,1.80
2019-03-10T21:36:50.181Z,1.85
2019-03-10T21:40:55.491Z,1.77
2019-03-10T21:45:00.380Z,1.70
2019-03-10T21:49:05.680Z,1.67
2019-03-10T21:53:10.669Z,1.32
2019-03-10T21:57:15.407Z,1.65
2019-03-10T22:01:20.525Z,1.20
2019-03-10T22:05:25.571Z,1.20
2019-03-10T22:09:30.472Z,1.60
2019-03-10T22:13:46.100Z,1.50
2019-03-10T22:17:42.016Z,1.70
2019-03-10T22:21:47.187Z,2.08
2019-03-10T22:25:52.419Z,1.60
2019-03-10T22:29:57.982Z,1.87
2019-03-10T22:34:03.176Z,2.00
2019-03-10T22:38:08.080Z,2.55
2019-03-10T22:42:12.933Z,1.82
2019-03-10T22:46:17.779Z,1.75
2019-03-10T22:50:22.514Z,2.47
2019-03-10T22:54:27.425Z,1.72
2019-03-10T22:58:32.345Z,1.92
2019-03-10T23:02:37.727Z,1.52
2019-03-10T23:06:42.447Z,1.90
2019-03-10T23:10:47.325Z,1.70
2019-03-10T23:14:52.736Z,2.10
2019-03-10T23:18:57.540Z,1.77
2019-03-10T23:23:03.364Z,2.10
2019-03-10T23:27:08.195Z,2.25
2019-03-10T23:31:14.271Z,2.47
2019-03-10T23:35:19.284Z,2.20
2019-03-10T23:39:25.148Z,2.05
2019-03-10T23:43:30.125Z,2.20
2019-03-10T23:47:35.297Z,1.90
2019-03-10T23:51:40.699Z,1.80
2019-03-10T23:55:45.437Z,1.80
2019-03-10T23:59:50.244Z,1.87
